Time;durP1;ratioP1;P1;durP2;ratioP2;P2;SDS_P1;SDS_P2;PMS_P1;PMS_P2;Temp;Humidity;BMP_temperature;BMP_pressure;BME280_temperature;BME280_humidity;BME280_pressure;Samples;Min_cycle;Max_cycle;Signal;HPM_P1;HPM_P2
2022/12/08 00:00:37;;;;;;;;;;;21.10;84.10;;;;;;5095021;28;19915;-43
2022/12/08 00:03:02;;;;;;;;;;;21.10;84.00;;;;;;5094991;28;19912;-40
2022/12/08 00:10:56;;;;;;;;;;;21.10;84.00;;;;;;5094461;28;19916;-40
2022/12/08 00:13:22;;;;;;;;;;;21.10;84.10;;;;;;5076482;28;19908;-40
2022/12/08 00:15:47;;;;;;;;;;;21.10;84.10;;;;;;5094347;28;19916;-40
2022/12/08 00:18:13;;;;;;;;;;;21.10;84.10;;;;;;5094547;28;20259;-41
2022/12/08 00:20:38;;;;;;;;;;;21.10;84.10;;;;;;5094299;28;19912;-41
2022/12/08 00:23:04;;;;;;;;;;;21.10;84.10;;;;;;5094600;28;19909;-41
2022/12/08 00:25:30;;;;;;;;;;;21.10;84.10;;;;;;5094478;28;19908;-41
2022/12/08 00:27:55;;;;;;;;;;;21.10;84.00;;;;;;5094384;28;19909;-40
2022/12/08 00:30:21;;;;;;;;;;;21.10;84.00;;;;;;5094073;28;20278;-40
2022/12/08 00:32:46;;;;;;;;;;;21.20;84.00;;;;;;5094098;28;19953;-41
2022/12/08 00:35:12;;;;;;;;;;;21.10;83.90;;;;;;5094368;28;19920;-41
2022/12/08 00:37:37;;;;;;;;;;;21.10;83.90;;;;;;5094402;28;19908;-41
2022/12/08 00:40:03;;;;;;;;;;;21.10;83.90;;;;;;5094401;28;20003;-41
2022/12/08 00:42:28;;;;;;;;;;;21.10;84.00;;;;;;5094292;28;19919;-40
2022/12/08 00:44:54;;;;;;;;;;;21.10;84.10;;;;;;5094265;28;20351;-40
2022/12/08 00:47:19;;;;;;;;;;;21.10;84.00;;;;;;5094215;28;19908;-41
2022/12/08 00:49:45;;;;;;;;;;;21.20;84.10;;;;;;5094118;28;19915;-41
2022/12/08 00:52:11;;;;;;;;;;;21.10;84.00;;;;;;5094235;28;20037;-41
2022/12/08 00:54:37;;;;;;;;;;;21.10;84.10;;;;;;5094124;28;20008;-41
2022/12/08 00:57:02;;;;;;;;;;;21.10;84.00;;;;;;5093693;28;19966;-41
2022/12/08 00:59:28;;;;;;;;;;;21.10;83.80;;;;;;5094019;28;19915;-40
2022/12/08 01:01:53;;;;;;;;;;;21.10;84.00;;;;;;5094097;28;19908;-41
2022/12/08 01:04:19;;;;;;;;;;;21.10;84.50;;;;;;5096929;28;19915;-40
2022/12/08 01:06:45;;;;;;;;;;;21.10;83.90;;;;;;5098281;28;19909;-41
2022/12/08 01:09:12;;;;;;;;;;;21.10;83.90;;;;;;5098141;28;19940;-41
2022/12/08 01:11:37;;;;;;;;;;;21.10;84.00;;;;;;5098243;28;19977;-40
2022/12/08 01:14:03;;;;;;;;;;;21.20;84.00;;;;;;5097851;28;20317;-41
2022/12/08 01:16:30;;;;;;;;;;;21.20;84.00;;;;;;5098178;28;19924;-41
2022/12/08 01:18:56;;;;;;;;;;;21.20;83.90;;;;;;5098107;28;19908;-41
2022/12/08 01:21:22;;;;;;;;;;;21.20;83.90;;;;;;5097978;28;19951;-41
2022/12/08 01:23:47;;;;;;;;;;;21.20;83.90;;;;;;5079807;28;19936;-41
2022/12/08 01:26:14;;;;;;;;;;;21.20;84.00;;;;;;5097663;28;20032;-41
2022/12/08 01:28:40;;;;;;;;;;;21.20;84.00;;;;;;5097874;28;19919;-41
2022/12/08 01:31:10;;;;;;;;;;;21.20;83.90;;;;;;5097635;28;20019;-41
2022/12/08 01:33:35;;;;;;;;;;;21.20;83.90;;;;;;5097298;28;19942;-40
2022/12/08 01:36:04;;;;;;;;;;;21.20;83.90;;;;;;5097658;28;20358;-41
2022/12/08 01:38:29;;;;;;;;;;;21.20;83.90;;;;;;5097721;28;19915;-41
2022/12/08 01:40:55;;;;;;;;;;;21.20;83.80;;;;;;5097690;28;19909;-41
2022/12/08 01:43:20;;;;;;;;;;;21.20;84.00;;;;;;5097648;28;19912;-41
2022/12/08 01:45:46;;;;;;;;;;;21.10;83.90;;;;;;5097860;28;20359;-41
2022/12/08 01:48:21;;;;;;;;;;;21.20;83.90;;;;;;5097441;28;19908;-41
2022/12/08 01:50:47;;;;;;;;;;;21.20;83.90;;;;;;5096953;28;19908;-41
2022/12/08 01:53:21;;;;;;;;;;;21.20;84.10;;;;;;5097156;28;19908;-41
2022/12/08 01:55:49;;;;;;;;;;;21.10;84.00;;;;;;5097444;28;19916;-41
2022/12/08 01:58:21;;;;;;;;;;;21.10;84.00;;;;;;5097019;28;20422;-41
2022/12/08 02:00:48;;;;;;;;;;;21.10;84.10;;;;;;5079047;28;19908;-40
2022/12/08 02:03:17;;;;;;;;;;;21.10;84.00;;;;;;5097023;28;19915;-41
2022/12/08 02:05:42;;;;;;;;;;;21.20;84.00;;;;;;5097394;28;19999;-41
2022/12/08 02:08:09;;;;;;;;;;;21.20;84.00;;;;;;5096898;28;19955;-41
2022/12/08 02:10:37;;;;;;;;;;;21.20;83.80;;;;;;5096830;28;19908;-41
2022/12/08 02:13:03;;;;;;;;;;;21.20;83.80;;;;;;5096732;28;19908;-41
2022/12/08 02:16:04;;;;;;;;;;;21.20;83.80;;;;;;5095423;28;19963;-40
2022/12/08 02:18:33;;;;;;;;;;;21.10;83.60;;;;;;5034259;28;19945;-40
2022/12/08 02:21:30;;;;;;;;;;;21.20;83.90;;;;;;5084887;28;19920;-41
2022/12/08 02:24:06;;;;;;;;;;;21.20;83.60;;;;;;5054866;28;19999;-40
2022/12/08 02:26:43;;;;;;;;;;;21.20;83.70;;;;;;5095438;28;19912;-41
2022/12/08 02:29:09;;;;;;;;;;;21.20;83.70;;;;;;5081230;28;19935;-41
2022/12/08 02:31:43;;;;;;;;;;;21.20;83.70;;;;;;5099692;28;20363;-41
2022/12/08 02:34:09;;;;;;;;;;;21.20;84.30;;;;;;5097876;28;19976;-41
2022/12/08 02:36:34;;;;;;;;;;;21.20;83.80;;;;;;5094647;28;19928;-40
2022/12/08 02:39:10;;;;;;;;;;;21.20;83.80;;;;;;5093773;28;19911;-41
2022/12/08 02:41:55;;;;;;;;;;;21.20;83.70;;;;;;5095465;28;19904;-40
2022/12/08 02:44:30;;;;;;;;;;;21.20;84.00;;;;;;5095116;28;19908;-41
2022/12/08 02:46:59;;;;;;;;;;;21.20;84.00;;;;;;5099075;28;19957;-41
2022/12/08 02:49:29;;;;;;;;;;;21.20;83.80;;;;;;5098564;28;19908;-41
2022/12/08 02:52:04;;;;;;;;;;;21.20;83.80;;;;;;5107000;28;19908;-41
2022/12/08 02:54:30;;;;;;;;;;;21.20;83.80;;;;;;5113893;28;19943;-40
2022/12/08 02:57:14;;;;;;;;;;;21.20;83.90;;;;;;5096649;28;19967;-40
2022/12/08 02:59:39;;;;;;;;;;;21.20;83.90;;;;;;5111884;28;19919;-41
2022/12/08 03:02:17;;;;;;;;;;;21.20;83.90;;;;;;5092889;28;19940;-40
2022/12/08 03:04:52;;;;;;;;;;;21.20;83.80;;;;;;5097970;28;19912;-41
2022/12/08 03:07:40;;;;;;;;;;;21.20;83.90;;;;;;5076584;28;19951;-41
2022/12/08 03:10:29;;;;;;;;;;;21.30;83.70;;;;;;5065925;28;19954;-41
2022/12/08 03:13:01;;;;;;;;;;;21.30;83.60;;;;;;5092913;28;19946;-41
2022/12/08 03:15:28;;;;;;;;;;;21.30;83.70;;;;;;5104729;28;20356;-41
2022/12/08 03:17:55;;;;;;;;;;;21.30;83.70;;;;;;5115790;28;20324;-41
2022/12/08 03:20:24;;;;;;;;;;;21.30;83.60;;;;;;5103356;28;19914;-41
2022/12/08 03:22:50;;;;;;;;;;;21.30;83.90;;;;;;5101082;28;19919;-40
2022/12/08 03:25:18;;;;;;;;;;;21.30;83.80;;;;;;5116022;28;20262;-41
2022/12/08 03:27:44;;;;;;;;;;;21.30;83.80;;;;;;5115683;28;20262;-41
2022/12/08 03:30:09;;;;;;;;;;;21.30;83.90;;;;;;5112336;28;19915;-41
2022/12/08 03:32:38;;;;;;;;;;;21.20;84.00;;;;;;5095501;28;19908;-41
2022/12/08 03:35:05;;;;;;;;;;;21.20;84.00;;;;;;5094830;28;19924;-41
2022/12/08 03:37:33;;;;;;;;;;;21.20;84.10;;;;;;5094968;28;19912;-41
2022/12/08 03:39:58;;;;;;;;;;;21.10;84.20;;;;;;5077215;28;19912;-41
2022/12/08 03:42:24;;;;;;;;;;;21.10;84.30;;;;;;5095153;28;19914;-41
2022/12/08 03:44:49;;;;;;;;;;;21.10;84.30;;;;;;5095324;28;19908;-41
2022/12/08 03:47:15;;;;;;;;;;;21.00;84.60;;;;;;5076980;28;20362;-41
2022/12/08 03:49:40;;;;;;;;;;;21.00;84.70;;;;;;5095164;28;20002;-41
2022/12/08 03:52:06;;;;;;;;;;;21.00;84.60;;;;;;5095162;28;19915;-41
2022/12/08 03:54:31;;;;;;;;;;;21.00;84.60;;;;;;5094853;28;19912;-41
2022/12/08 03:56:57;;;;;;;;;;;21.00;84.50;;;;;;5093062;28;19924;-41
2022/12/08 03:59:22;;;;;;;;;;;21.00;84.50;;;;;;5094728;28;19912;-40
2022/12/08 04:01:48;;;;;;;;;;;21.00;84.40;;;;;;5094523;28;19980;-41
2022/12/08 04:04:13;;;;;;;;;;;21.00;84.50;;;;;;5094386;28;20010;-43
2022/12/08 04:06:38;;;;;;;;;;;21.00;84.40;;;;;;5094905;28;19912;-41
2022/12/08 04:09:04;;;;;;;;;;;21.00;84.40;;;;;;5094835;28;19908;-41
2022/12/08 04:11:29;;;;;;;;;;;21.00;84.50;;;;;;5094803;28;20325;-40
2022/12/08 04:13:55;;;;;;;;;;;21.00;84.30;;;;;;5096520;28;19918;-41
2022/12/08 04:16:22;;;;;;;;;;;21.10;84.40;;;;;;5094966;28;20411;-44
2022/12/08 04:18:48;;;;;;;;;;;21.10;84.30;;;;;;5094305;28;19912;-40
2022/12/08 04:21:13;;;;;;;;;;;21.10;84.30;;;;;;5094572;28;19909;-43
2022/12/08 04:23:39;;;;;;;;;;;21.20;84.20;;;;;;5094356;28;19912;-40
2022/12/08 04:26:04;;;;;;;;;;;21.20;84.10;;;;;;5094587;28;19908;-41
2022/12/08 04:28:30;;;;;;;;;;;21.20;84.00;;;;;;5074396;28;19908;-43
2022/12/08 04:30:55;;;;;;;;;;;21.20;83.80;;;;;;5092365;28;19912;-43
2022/12/08 04:33:21;;;;;;;;;;;21.20;84.00;;;;;;5092416;28;19973;-42
2022/12/08 04:35:46;;;;;;;;;;;21.20;83.90;;;;;;5092309;28;19920;-43
2022/12/08 04:38:12;;;;;;;;;;;21.20;83.80;;;;;;5091883;28;19912;-41
2022/12/08 04:40:38;;;;;;;;;;;21.30;83.80;;;;;;5092491;28;20319;-41
2022/12/08 04:43:03;;;;;;;;;;;21.30;83.90;;;;;;5093769;28;19912;-41
2022/12/08 04:45:29;;;;;;;;;;;21.30;83.90;;;;;;5094630;28;19912;-40
2022/12/08 04:47:54;;;;;;;;;;;21.20;83.80;;;;;;5094257;28;20274;-41
2022/12/08 04:50:20;;;;;;;;;;;21.30;83.90;;;;;;5094233;28;19947;-40
2022/12/08 04:52:45;;;;;;;;;;;21.20;84.00;;;;;;5093911;28;20276;-42
2022/12/08 04:55:11;;;;;;;;;;;21.20;84.00;;;;;;5093844;28;19943;-40
2022/12/08 04:57:36;;;;;;;;;;;21.20;84.00;;;;;;5094402;28;19912;-41
2022/12/08 05:00:03;;;;;;;;;;;21.20;84.00;;;;;;5094168;28;20371;-40
2022/12/08 05:02:28;;;;;;;;;;;21.20;84.50;;;;;;5094059;28;19963;-41
2022/12/08 05:04:54;;;;;;;;;;;21.20;84.10;;;;;;5093993;28;19947;-40
2022/12/08 05:07:20;;;;;;;;;;;21.20;84.00;;;;;;5093791;28;19908;-40
2022/12/08 05:09:46;;;;;;;;;;;21.10;84.00;;;;;;5093783;28;19908;-41
2022/12/08 05:12:11;;;;;;;;;;;21.10;84.10;;;;;;5093614;28;20290;-40
2022/12/08 05:14:36;;;;;;;;;;;21.10;84.10;;;;;;5075655;28;19999;-41
2022/12/08 05:17:02;;;;;;;;;;;21.10;84.20;;;;;;5093833;28;19916;-41
2022/12/08 05:19:27;;;;;;;;;;;21.10;84.20;;;;;;5093875;28;19919;-41
2022/12/08 05:21:53;;;;;;;;;;;21.10;84.20;;;;;;5093872;28;19912;-41
2022/12/08 05:24:19;;;;;;;;;;;21.10;84.10;;;;;;5075724;28;19919;-41
2022/12/08 05:26:45;;;;;;;;;;;21.10;84.00;;;;;;5093679;28;19954;-41
2022/12/08 05:29:10;;;;;;;;;;;21.10;84.00;;;;;;5093616;28;19935;-40
2022/12/08 05:31:35;;;;;;;;;;;21.10;84.10;;;;;;5094080;28;20207;-42
2022/12/08 05:34:01;;;;;;;;;;;21.10;84.00;;;;;;5093446;28;19920;-41
2022/12/08 05:36:27;;;;;;;;;;;21.10;84.00;;;;;;5075267;28;19918;-41
2022/12/08 05:38:54;;;;;;;;;;;21.10;84.00;;;;;;5093599;28;20015;-40
2022/12/08 05:41:20;;;;;;;;;;;21.10;84.00;;;;;;5093376;28;20354;-41
2022/12/08 05:43:46;;;;;;;;;;;21.20;84.00;;;;;;5093570;28;19915;-44
2022/12/08 05:46:12;;;;;;;;;;;21.20;83.90;;;;;;5093522;28;19908;-40
2022/12/08 05:48:37;;;;;;;;;;;21.20;84.00;;;;;;5093610;28;19908;-41
2022/12/08 05:51:03;;;;;;;;;;;21.20;83.90;;;;;;5096836;28;20327;-41
2022/12/08 05:53:28;;;;;;;;;;;21.20;83.90;;;;;;5096941;28;19916;-41
2022/12/08 05:55:53;;;;;;;;;;;21.20;84.00;;;;;;5096775;28;19919;-41
2022/12/08 05:58:20;;;;;;;;;;;21.20;84.00;;;;;;5096890;28;19912;-41
2022/12/08 06:00:46;;;;;;;;;;;21.20;84.10;;;;;;5097100;28;20359;-41
2022/12/08 06:03:12;;;;;;;;;;;21.20;84.00;;;;;;5078921;28;19915;-41
2022/12/08 06:05:38;;;;;;;;;;;21.20;84.00;;;;;;5097086;28;20275;-41
2022/12/08 06:08:04;;;;;;;;;;;21.20;83.90;;;;;;5096920;28;20252;-41
2022/12/08 06:10:29;;;;;;;;;;;21.20;84.10;;;;;;5097031;28;20373;-41
2022/12/08 06:12:55;;;;;;;;;;;21.20;84.20;;;;;;5096772;28;20405;-41
2022/12/08 06:15:21;;;;;;;;;;;21.20;84.20;;;;;;5097103;28;19912;-41
2022/12/08 06:17:46;;;;;;;;;;;21.20;84.10;;;;;;5096586;28;19912;-40
2022/12/08 06:20:11;;;;;;;;;;;21.20;83.90;;;;;;5096681;28;19912;-41
2022/12/08 06:22:37;;;;;;;;;;;21.20;83.80;;;;;;5096687;28;19930;-41
2022/12/08 06:25:03;;;;;;;;;;;21.20;83.90;;;;;;5096484;28;19963;-41
2022/12/08 06:27:29;;;;;;;;;;;21.20;83.90;;;;;;5096103;28;19976;-41
2022/12/08 06:29:54;;;;;;;;;;;21.20;84.00;;;;;;5096166;28;19999;-41
2022/12/08 06:32:20;;;;;;;;;;;21.20;84.00;;;;;;5096496;28;19912;-41
2022/12/08 06:34:45;;;;;;;;;;;21.20;83.90;;;;;;5095948;28;19919;-41
2022/12/08 06:37:10;;;;;;;;;;;21.20;83.90;;;;;;5096264;28;19957;-41
2022/12/08 06:39:36;;;;;;;;;;;21.20;83.90;;;;;;5078157;28;20456;-41
2022/12/08 06:44:45;;;;;;;;;;;21.20;83.80;;;;;;5095990;28;19977;-41
2022/12/08 06:47:11;;;;;;;;;;;21.20;83.80;;;;;;5095929;28;20274;-41
2022/12/08 06:49:36;;;;;;;;;;;21.20;83.80;;;;;;5096396;28;19914;-41
2022/12/08 06:52:02;;;;;;;;;;;21.20;83.90;;;;;;5096150;28;20383;-41
2022/12/08 06:54:28;;;;;;;;;;;21.30;84.00;;;;;;5095664;28;19922;-41
2022/12/08 06:56:53;;;;;;;;;;;21.20;83.90;;;;;;5095784;28;19970;-41
2022/12/08 06:59:19;;;;;;;;;;;21.30;84.00;;;;;;5095910;28;19916;-41
2022/12/08 07:01:44;;;;;;;;;;;21.20;84.00;;;;;;5095304;28;19908;-41
2022/12/08 07:04:10;;;;;;;;;;;21.20;84.00;;;;;;5092315;28;20000;-41
2022/12/08 07:06:36;;;;;;;;;;;21.10;84.10;;;;;;5093961;28;20319;-41
2022/12/08 07:09:01;;;;;;;;;;;21.10;84.20;;;;;;5094102;28;19966;-41
2022/12/08 07:11:27;;;;;;;;;;;21.00;84.30;;;;;;5094193;28;20311;-41
2022/12/08 07:13:54;;;;;;;;;;;21.00;84.60;;;;;;5096660;28;20418;-47
2022/12/08 07:16:19;;;;;;;;;;;20.90;84.80;;;;;;5108995;28;19920;-44
2022/12/08 07:18:45;;;;;;;;;;;20.90;84.50;;;;;;5100810;28;20290;-50
2022/12/08 07:21:13;;;;;;;;;;;20.70;82.90;;;;;;5101988;28;19918;-46
2022/12/08 07:23:39;;;;;;;;;;;20.70;83.70;;;;;;5114235;28;19916;-51
2022/12/08 07:26:06;;;;;;;;;;;20.70;85.00;;;;;;5100525;28;20053;-51
2022/12/08 07:28:33;;;;;;;;;;;20.70;85.10;;;;;;5094135;28;19947;-51
2022/12/08 07:30:58;;;;;;;;;;;20.60;85.20;;;;;;5093268;28;19915;-49
2022/12/08 07:33:24;;;;;;;;;;;20.60;85.30;;;;;;5103513;28;20410;-52
2022/12/08 07:36:00;;;;;;;;;;;20.50;85.30;;;;;;5093203;28;19916;-54
2022/12/08 07:38:26;;;;;;;;;;;20.50;85.40;;;;;;5099049;28;20295;-48
2022/12/08 07:40:52;;;;;;;;;;;20.20;79.50;;;;;;5113115;28;19918;-49
2022/12/08 07:43:18;;;;;;;;;;;20.10;84.20;;;;;;5107907;28;19912;-52
2022/12/08 07:45:44;;;;;;;;;;;20.10;83.40;;;;;;5100159;28;20001;-50
2022/12/08 07:48:12;;;;;;;;;;;20.10;85.20;;;;;;5056438;28;19920;-50
2022/12/08 07:50:38;;;;;;;;;;;20.10;85.50;;;;;;5074744;28;19914;-52
2022/12/08 07:53:04;;;;;;;;;;;20.10;85.60;;;;;;5056680;28;19995;-48
2022/12/08 07:55:29;;;;;;;;;;;20.10;85.70;;;;;;5074576;28;19970;-52
2022/12/08 07:57:55;;;;;;;;;;;20.10;85.80;;;;;;5074182;28;20382;-49
2022/12/08 08:00:20;;;;;;;;;;;20.00;85.70;;;;;;5074326;28;20008;-52
2022/12/08 08:02:45;;;;;;;;;;;20.00;85.80;;;;;;5074317;28;20264;-51
2022/12/08 08:05:11;;;;;;;;;;;20.00;85.90;;;;;;5074362;28;19908;-51
2022/12/08 08:07:37;;;;;;;;;;;19.90;85.90;;;;;;5074432;28;19915;-49
2022/12/08 08:10:03;;;;;;;;;;;20.00;86.00;;;;;;5074167;28;20271;-52
2022/12/08 08:12:29;;;;;;;;;;;19.90;86.00;;;;;;5073788;28;19912;-49
2022/12/08 08:14:54;;;;;;;;;;;19.90;86.10;;;;;;5073654;28;20382;-48
2022/12/08 08:17:19;;;;;;;;;;;19.80;86.10;;;;;;5073814;28;20020;-51
2022/12/08 08:19:45;;;;;;;;;;;19.80;86.10;;;;;;5073716;28;19923;-52
2022/12/08 08:22:10;;;;;;;;;;;19.80;86.20;;;;;;5073989;28;19953;-49
2022/12/08 08:24:36;;;;;;;;;;;19.80;86.20;;;;;;5056308;28;19908;-50
2022/12/08 08:27:02;;;;;;;;;;;19.80;86.30;;;;;;5074085;28;19999;-49
2022/12/08 08:29:27;;;;;;;;;;;19.70;86.30;;;;;;5056169;28;19909;-51
2022/12/08 08:31:53;;;;;;;;;;;19.70;86.30;;;;;;5074289;28;20343;-48
2022/12/08 08:34:18;;;;;;;;;;;19.70;86.40;;;;;;5073479;28;19928;-50
2022/12/08 08:36:43;;;;;;;;;;;19.70;86.40;;;;;;5073936;28;19923;-49
2022/12/08 08:39:09;;;;;;;;;;;19.70;86.50;;;;;;5055666;28;20024;-51
2022/12/08 08:41:34;;;;;;;;;;;19.70;86.50;;;;;;5073912;28;19912;-51
2022/12/08 08:44:00;;;;;;;;;;;19.70;86.50;;;;;;5073365;28;19909;-51
2022/12/08 08:46:25;;;;;;;;;;;19.60;86.50;;;;;;5073716;28;20401;-52
2022/12/08 08:48:51;;;;;;;;;;;19.60;86.60;;;;;;5073416;28;19909;-52
2022/12/08 08:51:16;;;;;;;;;;;19.60;86.60;;;;;;5073855;28;20252;-51
2022/12/08 08:53:42;;;;;;;;;;;19.60;86.60;;;;;;5073591;28;19943;-51
2022/12/08 08:56:12;;;;;;;;;;;19.50;86.60;;;;;;5073649;28;19981;-48
2022/12/08 08:58:38;;;;;;;;;;;19.60;86.70;;;;;;5073690;28;19920;-49
2022/12/08 09:01:03;;;;;;;;;;;19.60;86.70;;;;;;5073630;28;19912;-49
2022/12/08 09:03:29;;;;;;;;;;;19.50;86.70;;;;;;5073429;28;20286;-52
2022/12/08 09:05:55;;;;;;;;;;;19.50;86.70;;;;;;5074097;28;20000;-48
2022/12/08 09:08:20;;;;;;;;;;;19.40;86.70;;;;;;5055486;28;19909;-50
2022/12/08 09:10:46;;;;;;;;;;;19.50;86.80;;;;;;5073737;28;20380;-52
2022/12/08 09:13:11;;;;;;;;;;;19.40;86.80;;;;;;5073277;28;20374;-48
2022/12/08 09:15:37;;;;;;;;;;;19.40;86.80;;;;;;5073123;28;19912;-53
2022/12/08 09:18:05;;;;;;;;;;;19.40;86.80;;;;;;5073653;28;20304;-50
2022/12/08 09:20:31;;;;;;;;;;;19.40;86.80;;;;;;5073764;28;19915;-52
2022/12/08 09:22:56;;;;;;;;;;;19.30;86.80;;;;;;5073480;28;19909;-53
2022/12/08 09:25:22;;;;;;;;;;;19.30;86.80;;;;;;5076166;28;20006;-49
2022/12/08 09:27:47;;;;;;;;;;;19.30;86.80;;;;;;5077429;28;19915;-51
2022/12/08 09:30:13;;;;;;;;;;;19.30;86.90;;;;;;5077391;28;20398;-48
2022/12/08 09:32:39;;;;;;;;;;;19.30;86.90;;;;;;5077439;28;19913;-47
2022/12/08 09:35:04;;;;;;;;;;;19.30;87.00;;;;;;5077320;28;19956;-52
2022/12/08 09:37:30;;;;;;;;;;;19.30;87.00;;;;;;5077139;28;19917;-48
2022/12/08 09:39:56;;;;;;;;;;;19.20;87.00;;;;;;5076963;28;19909;-49
2022/12/08 09:42:32;;;;;;;;;;;19.20;87.00;;;;;;5076936;28;19908;-51
2022/12/08 09:45:07;;;;;;;;;;;19.20;86.90;;;;;;5076859;28;19908;-48
2022/12/08 09:47:33;;;;;;;;;;;19.20;87.00;;;;;;5076923;28;19915;-51
2022/12/08 09:50:05;;;;;;;;;;;19.20;87.00;;;;;;5076847;28;19912;-51
2022/12/08 09:52:34;;;;;;;;;;;19.20;87.00;;;;;;5076914;28;19908;-50
2022/12/08 09:55:01;;;;;;;;;;;19.20;87.10;;;;;;5076622;28;19966;-48
2022/12/08 09:57:29;;;;;;;;;;;19.20;87.10;;;;;;5076331;28;19920;-51
2022/12/08 09:59:56;;;;;;;;;;;19.20;87.10;;;;;;5076691;28;19986;-52
2022/12/08 10:02:23;;;;;;;;;;;19.10;87.10;;;;;;5076410;28;19908;-48
2022/12/08 10:04:49;;;;;;;;;;;19.10;87.10;;;;;;5076477;28;20286;-50
2022/12/08 10:07:23;;;;;;;;;;;19.10;87.10;;;;;;5076395;28;19909;-52
2022/12/08 10:10:04;;;;;;;;;;;19.10;87.10;;;;;;5076286;28;19913;-52
2022/12/08 10:12:38;;;;;;;;;;;19.10;87.10;;;;;;5076518;28;19919;-49
2022/12/08 10:15:18;;;;;;;;;;;19.10;87.10;;;;;;5058610;28;19915;-48
2022/12/08 10:17:47;;;;;;;;;;;19.10;87.20;;;;;;5076694;28;19917;-50
2022/12/08 10:20:17;;;;;;;;;;;19.10;87.10;;;;;;5076225;28;20061;-48
2022/12/08 10:22:43;;;;;;;;;;;19.10;87.20;;;;;;5076618;28;20003;-48
2022/12/08 10:25:19;;;;;;;;;;;19.00;87.10;;;;;;5076316;28;19955;-50
2022/12/08 10:27:48;;;;;;;;;;;19.00;87.10;;;;;;5075984;28;19909;-50
2022/12/08 10:30:15;;;;;;;;;;;19.00;87.10;;;;;;5075968;28;19909;-49
2022/12/08 10:32:42;;;;;;;;;;;19.00;87.20;;;;;;5075866;28;19909;-48
2022/12/08 10:35:12;;;;;;;;;;;19.00;87.20;;;;;;5076035;28;19927;-49
2022/12/08 10:37:38;;;;;;;;;;;19.00;87.70;;;;;;5075049;28;19925;-49
2022/12/08 10:40:08;;;;;;;;;;;19.00;87.20;;;;;;5075985;28;19999;-50
2022/12/08 10:42:36;;;;;;;;;;;19.00;87.20;;;;;;5076102;28;19909;-48
2022/12/08 10:45:07;;;;;;;;;;;19.00;87.20;;;;;;5075917;28;19916;-52
2022/12/08 10:47:40;;;;;;;;;;;18.90;87.20;;;;;;5075481;28;19909;-49
2022/12/08 10:50:08;;;;;;;;;;;19.00;87.30;;;;;;5075702;28;19934;-47
2022/12/08 10:52:37;;;;;;;;;;;18.90;87.20;;;;;;5075535;28;19909;-47
2022/12/08 10:55:03;;;;;;;;;;;18.90;87.20;;;;;;5075678;28;20339;-48
2022/12/08 10:57:28;;;;;;;;;;;18.90;87.20;;;;;;5075621;28;19916;-51
2022/12/08 10:59:54;;;;;;;;;;;18.90;87.30;;;;;;5075591;28;19919;-51
2022/12/08 11:02:20;;;;;;;;;;;18.90;87.80;;;;;;5075653;28;19916;-54
2022/12/08 11:04:45;;;;;;;;;;;18.90;87.30;;;;;;5075805;28;20336;-50
2022/12/08 11:07:18;;;;;;;;;;;18.90;87.30;;;;;;5075641;28;19915;-51
2022/12/08 11:09:49;;;;;;;;;;;18.90;87.30;;;;;;5075754;28;20008;-48
2022/12/08 11:12:16;;;;;;;;;;;18.90;87.30;;;;;;5075571;28;19946;-52
2022/12/08 11:14:41;;;;;;;;;;;18.90;87.30;;;;;;5075341;28;19908;-51
2022/12/08 11:17:09;;;;;;;;;;;18.90;87.30;;;;;;5075056;28;20433;-52
2022/12/08 11:19:45;;;;;;;;;;;18.90;87.30;;;;;;5075387;28;19937;-48
2022/12/08 11:22:23;;;;;;;;;;;18.80;87.20;;;;;;5075392;28;19909;-49
2022/12/08 11:25:06;;;;;;;;;;;18.80;87.20;;;;;;5075270;28;19908;-51
2022/12/08 11:27:33;;;;;;;;;;;18.80;87.20;;;;;;5074996;28;19909;-53
2022/12/08 11:29:59;;;;;;;;;;;18.80;87.30;;;;;;5075006;28;19908;-49
2022/12/08 11:32:24;;;;;;;;;;;18.80;87.30;;;;;;5075108;28;19969;-52
2022/12/08 11:34:50;;;;;;;;;;;18.80;87.40;;;;;;5074890;28;20308;-52
2022/12/08 11:37:48;;;;;;;;;;;18.80;87.30;;;;;;5074353;28;19916;-50
2022/12/08 11:40:20;;;;;;;;;;;18.80;87.30;;;;;;5051863;28;19920;-50
2022/12/08 11:43:04;;;;;;;;;;;18.80;87.30;;;;;;5074870;28;19909;-51
2022/12/08 11:45:31;;;;;;;;;;;18.70;87.30;;;;;;5074394;28;19912;-50
2022/12/08 11:48:05;;;;;;;;;;;18.70;87.30;;;;;;5074448;28;19908;-49
2022/12/08 11:50:38;;;;;;;;;;;18.70;87.30;;;;;;5056867;28;19908;-49
2022/12/08 11:53:05;;;;;;;;;;;18.70;87.30;;;;;;5074397;28;19912;-51
2022/12/08 11:55:44;;;;;;;;;;;18.70;87.30;;;;;;5074479;28;19930;-49
2022/12/08 11:58:19;;;;;;;;;;;18.70;87.30;;;;;;5056675;28;19927;-52
2022/12/08 12:00:44;;;;;;;;;;;18.70;87.30;;;;;;5074118;28;19915;-49
2022/12/08 12:03:20;;;;;;;;;;;18.70;87.30;;;;;;5074325;28;19908;-50
2022/12/08 12:06:04;;;;;;;;;;;18.70;87.30;;;;;;5074277;28;19909;-51
2022/12/08 12:08:48;;;;;;;;;;;18.70;87.30;;;;;;5073857;28;19908;-50
2022/12/08 12:14:22;;;;;;;;;;;18.70;87.30;;;;;;5073832;28;20421;-50
2022/12/08 12:16:59;;;;;;;;;;;18.70;87.30;;;;;;5073490;28;19956;-50
2022/12/08 12:19:25;;;;;;;;;;;18.70;87.40;;;;;;5073976;28;19967;-53
2022/12/08 12:21:53;;;;;;;;;;;18.70;87.40;;;;;;5073853;28;19909;-48
2022/12/08 12:24:21;;;;;;;;;;;18.60;87.40;;;;;;5073742;28;19919;-50
2022/12/08 12:27:05;;;;;;;;;;;18.60;87.40;;;;;;5074074;28;20003;-50
2022/12/08 12:29:32;;;;;;;;;;;18.60;87.40;;;;;;5073661;28;19909;-50
2022/12/08 12:32:09;;;;;;;;;;;18.60;87.40;;;;;;5073682;28;19916;-49
2022/12/08 12:34:36;;;;;;;;;;;18.60;87.40;;;;;;5073821;28;19931;-49
2022/12/08 12:37:09;;;;;;;;;;;18.60;87.40;;;;;;5073108;28;19919;-49
2022/12/08 12:39:46;;;;;;;;;;;18.60;87.40;;;;;;5073629;28;19912;-48
2022/12/08 12:42:31;;;;;;;;;;;18.60;87.50;;;;;;5055944;28;19908;-49
2022/12/08 12:45:20;;;;;;;;;;;18.60;87.50;;;;;;5073317;28;19959;-50
2022/12/08 12:47:48;;;;;;;;;;;18.60;87.50;;;;;;5066538;28;19984;-50
2022/12/08 12:50:34;;;;;;;;;;;18.60;87.50;;;;;;5073769;28;19908;-49
2022/12/08 12:53:01;;;;;;;;;;;18.60;87.50;;;;;;5073439;28;19912;-50
2022/12/08 12:55:47;;;;;;;;;;;18.50;87.50;;;;;;5073426;28;19915;-53
2022/12/08 12:58:18;;;;;;;;;;;18.50;87.50;;;;;;5073439;28;19920;-48
2022/12/08 13:00:44;;;;;;;;;;;18.50;87.50;;;;;;5073013;28;19908;-51
2022/12/08 13:03:12;;;;;;;;;;;18.50;87.50;;;;;;5073826;28;20373;-49
2022/12/08 13:05:46;;;;;;;;;;;18.50;87.50;;;;;;5073633;28;19908;-53
2022/12/08 13:08:19;;;;;;;;;;;18.50;87.50;;;;;;5073691;28;19909;-52
2022/12/08 13:10:59;;;;;;;;;;;18.50;87.50;;;;;;5073312;28;19908;-51
2022/12/08 13:13:25;;;;;;;;;;;18.50;87.50;;;;;;5073510;28;20337;-53
2022/12/08 13:15:51;;;;;;;;;;;18.50;87.50;;;;;;5073278;28;20023;-51
2022/12/08 13:18:19;;;;;;;;;;;18.50;87.50;;;;;;5073645;28;19912;-51
2022/12/08 13:21:03;;;;;;;;;;;18.50;87.50;;;;;;5072894;28;19915;-51
2022/12/08 13:23:37;;;;;;;;;;;18.50;87.50;;;;;;5055489;28;19995;-53
2022/12/08 13:26:11;;;;;;;;;;;18.50;87.40;;;;;;5073422;28;19958;-50
2022/12/08 13:28:55;;;;;;;;;;;18.50;87.40;;;;;;5055247;28;19909;-50
2022/12/08 13:31:38;;;;;;;;;;;18.50;87.40;;;;;;5073256;28;20003;-50
2022/12/08 13:34:05;;;;;;;;;;;18.50;87.40;;;;;;5073097;28;19928;-50
2022/12/08 13:36:38;;;;;;;;;;;18.50;87.50;;;;;;5073166;28;19995;-53
2022/12/08 13:39:05;;;;;;;;;;;18.50;87.50;;;;;;5073105;28;19913;-48
2022/12/08 13:41:33;;;;;;;;;;;18.50;87.50;;;;;;5073289;28;19909;-52
2022/12/08 13:44:03;;;;;;;;;;;18.50;87.50;;;;;;5073444;28;19909;-52
2022/12/08 13:46:41;;;;;;;;;;;18.50;87.50;;;;;;5073020;28;19908;-50
2022/12/08 13:49:07;;;;;;;;;;;18.50;87.50;;;;;;5073249;28;19908;-50
2022/12/08 13:51:41;;;;;;;;;;;18.40;87.50;;;;;;5073042;28;19915;-49
2022/12/08 13:54:11;;;;;;;;;;;18.40;87.40;;;;;;5073072;28;20018;-52
2022/12/08 13:56:41;;;;;;;;;;;18.40;87.50;;;;;;5073324;28;19916;-51
2022/12/08 13:59:08;;;;;;;;;;;18.40;87.50;;;;;;5055173;28;19962;-48
2022/12/08 14:01:39;;;;;;;;;;;18.40;87.50;;;;;;5072800;28;20381;-49
2022/12/08 14:04:04;;;;;;;;;;;18.40;87.50;;;;;;5073124;28;20035;-51
2022/12/08 14:06:30;;;;;;;;;;;18.40;87.50;;;;;;5072625;28;19951;-51
2022/12/08 14:09:00;;;;;;;;;;;18.40;87.50;;;;;;5072807;28;20314;-50
2022/12/08 14:11:34;;;;;;;;;;;18.40;87.50;;;;;;5073961;28;20267;-47
2022/12/08 14:14:18;;;;;;;;;;;18.40;87.60;;;;;;5076456;28;19919;-51
2022/12/08 14:16:55;;;;;;;;;;;18.40;87.60;;;;;;5076398;28;19967;-50
2022/12/08 14:19:22;;;;;;;;;;;18.30;87.50;;;;;;5058310;28;19920;-53
2022/12/08 14:21:54;;;;;;;;;;;18.40;87.60;;;;;;5076461;28;19931;-50
2022/12/08 14:24:20;;;;;;;;;;;18.30;87.60;;;;;;5076131;28;20011;-49
2022/12/08 14:26:50;;;;;;;;;;;18.30;87.60;;;;;;5058447;28;19931;-48
2022/12/08 14:29:27;;;;;;;;;;;18.30;87.60;;;;;;5058043;28;20359;-48
2022/12/08 14:31:53;;;;;;;;;;;18.30;87.60;;;;;;5058105;28;19941;-49
2022/12/08 14:34:18;;;;;;;;;;;18.30;87.50;;;;;;5075764;28;19952;-52